createdAt,value
2022-08-17T00:01:52.777Z,5.83
2022-08-17T00:06:57.775Z,7.05
2022-08-17T00:12:41.471Z,7.70
2022-08-17T00:17:30.939Z,7.13
2022-08-17T00:22:36.647Z,7.70
2022-08-17T00:27:42.542Z,6.18
2022-08-17T00:33:12.397Z,7.33
2022-08-17T00:38:14.413Z,7.10
2022-08-17T00:43:27.407Z,7.70
2022-08-17T00:48:33.027Z,7.65
2022-08-17T00:53:52.511Z,7.57
2022-08-17T00:58:59.298Z,5.70
2022-08-17T01:04:05.237Z,7.13
2022-08-17T01:09:09.874Z,9.30
2022-08-17T01:14:15.515Z,9.63
2022-08-17T01:19:26.305Z,9.47
2022-08-17T01:24:34.162Z,8.68
2022-08-17T01:29:42.058Z,10.13
2022-08-17T01:34:50.337Z,9.90
2022-08-17T01:40:05.718Z,10.00
2022-08-17T01:45:17.782Z,9.48
2022-08-17T01:50:27.691Z,8.70
2022-08-17T01:55:42.058Z,8.70
2022-08-17T02:01:00.864Z,9.97
2022-08-17T02:06:27.042Z,8.43
2022-08-17T02:11:37.769Z,7.97
2022-08-17T02:16:43.664Z,7.35
2022-08-17T02:21:52.916Z,7.80
2022-08-17T02:26:58.663Z,8.47
2022-08-17T02:32:03.131Z,7.07
2022-08-17T02:37:08.558Z,8.95
2022-08-17T02:42:16.096Z,10.50
2022-08-17T02:47:20.510Z,10.18
2022-08-17T02:52:42.828Z,11.80
2022-08-17T02:57:50.437Z,12.52
2022-08-17T03:02:55.025Z,10.15
2022-08-17T03:08:00.009Z,10.00
2022-08-17T03:13:06.080Z,8.73
2022-08-17T03:18:14.411Z,8.32
2022-08-17T03:23:30.297Z,9.00
2022-08-17T03:28:36.353Z,9.43
2022-08-17T03:33:40.658Z,9.85
2022-08-17T03:38:45.092Z,10.00
2022-08-17T03:43:50.836Z,8.65
2022-08-17T03:49:12.877Z,10.13
2022-08-17T03:54:34.646Z,9.97
2022-08-17T03:59:41.305Z,8.23
2022-08-17T04:04:45.834Z,9.80
2022-08-17T04:09:50.934Z,8.77
2022-08-17T04:14:56.730Z,8.87
2022-08-17T04:20:01.175Z,8.63
2022-08-17T04:25:10.796Z,9.50
2022-08-17T04:30:17.048Z,10.33
2022-08-17T04:35:24.281Z,11.83
2022-08-17T04:40:47.706Z,11.83
2022-08-17T04:45:58.228Z,12.32
2022-08-17T04:51:03.623Z,12.43
2022-08-17T04:56:16.164Z,13.57
2022-08-17T05:01:25.990Z,13.30
2022-08-17T05:06:31.358Z,13.20
2022-08-17T05:11:37.721Z,14.13
2022-08-17T05:16:45.640Z,14.35
2022-08-17T05:21:51.328Z,15.38
2022-08-17T05:26:55.646Z,13.52
2022-08-17T05:32:39.571Z,13.30
2022-08-17T05:37:34.982Z,14.88
2022-08-17T05:42:39.626Z,14.23
2022-08-17T05:47:48.525Z,13.60
2022-08-17T05:53:05.151Z,11.85
2022-08-17T05:58:24.036Z,9.90
2022-08-17T06:03:49.107Z,10.00
2022-08-17T06:09:06.653Z,8.27
2022-08-17T06:14:43.187Z,8.02
2022-08-17T06:19:55.909Z,7.85
2022-08-17T06:25:10.000Z,7.10
2022-08-17T06:30:21.112Z,7.20
2022-08-17T06:35:38.861Z,6.73
2022-08-17T06:41:03.699Z,6.78
2022-08-17T06:46:14.593Z,6.32
2022-08-17T06:51:31.790Z,8.77
2022-08-17T06:56:54.566Z,7.68
2022-08-17T07:02:08.328Z,7.72
2022-08-17T07:07:38.293Z,7.13
2022-08-17T07:12:47.018Z,6.68
2022-08-17T07:17:52.438Z,6.07
2022-08-17T07:23:14.766Z,5.88
2022-08-17T07:28:24.603Z,6.07
2022-08-17T07:33:33.290Z,5.73
2022-08-17T07:38:58.642Z,7.10
2022-08-17T07:44:03.139Z,6.20
2022-08-17T07:49:33.653Z,6.57
2022-08-17T07:54:42.811Z,7.13
2022-08-17T08:00:23.906Z,5.07
2022-08-17T08:05:55.280Z,5.07
2022-08-17T08:11:09.131Z,4.85
2022-08-17T08:16:27.603Z,4.35
2022-08-17T08:21:59.195Z,5.25
2022-08-17T08:27:25.318Z,5.03
2022-08-17T08:32:54.013Z,4.57
2022-08-17T08:38:16.546Z,4.60
2022-08-17T08:43:37.433Z,6.25
2022-08-17T08:49:14.472Z,5.97
2022-08-17T08:54:36.611Z,6.55
2022-08-17T08:59:57.916Z,6.30
2022-08-17T09:05:16.619Z,10.13
2022-08-17T09:10:30.642Z,9.48
2022-08-17T09:15:46.183Z,9.13
2022-08-17T09:21:00.001Z,9.53
2022-08-17T09:26:22.980Z,10.82
2022-08-17T09:31:48.842Z,7.97
2022-08-17T09:37:08.805Z,6.60
2022-08-17T09:42:45.370Z,6.57
2022-08-17T09:48:02.019Z,5.93
2022-08-17T09:53:06.798Z,5.43
2022-08-17T09:58:29.215Z,5.68
2022-08-17T10:04:06.556Z,5.45
2022-08-17T10:09:52.133Z,4.38
2022-08-17T10:15:26.411Z,6.15
2022-08-17T10:20:49.066Z,3.88
2022-08-17T10:26:46.192Z,4.00
2022-08-17T10:32:12.574Z,2.95
2022-08-17T10:38:11.489Z,4.25
2022-08-17T10:44:35.408Z,3.72
2022-08-17T10:57:41.316Z,3.55
2022-08-17T11:03:05.010Z,3.35
2022-08-17T11:09:15.501Z,3.55
2022-08-17T11:14:44.013Z,4.20
2022-08-17T11:20:20.123Z,3.75
2022-08-17T11:25:38.477Z,2.90
2022-08-17T11:30:51.912Z,3.70
2022-08-17T11:36:13.795Z,3.10
2022-08-17T11:41:30.359Z,3.77
2022-08-17T11:47:17.534Z,3.33
2022-08-17T11:52:46.002Z,2.72
2022-08-17T11:58:01.670Z,10.77
2022-08-17T12:03:55.315Z,2.70
2022-08-17T12:09:16.970Z,4.75
2022-08-17T12:14:45.367Z,2.70
2022-08-17T12:19:53.380Z,2.50
2022-08-17T12:25:13.436Z,2.30
2022-08-17T12:30:23.071Z,2.60
2022-08-17T12:35:38.866Z,2.92
2022-08-17T12:40:55.723Z,2.33
2022-08-17T12:46:13.155Z,1.80
2022-08-17T12:51:24.349Z,2.10
2022-08-17T12:56:31.319Z,4.78
2022-08-17T13:01:38.776Z,6.43
2022-08-17T13:06:52.279Z,2.20
2022-08-17T13:12:06.158Z,2.38
2022-08-17T13:17:13.647Z,2.22
2022-08-17T13:22:25.957Z,3.65
2022-08-17T13:27:31.611Z,3.00
2022-08-17T13:32:44.053Z,2.80
2022-08-17T13:38:03.145Z,2.90
2022-08-17T13:43:07.720Z,3.75
2022-08-17T13:48:30.174Z,3.67
2022-08-17T13:54:09.698Z,4.93
2022-08-17T13:59:18.024Z,3.67
2022-08-17T14:04:45.911Z,4.18
2022-08-17T14:09:57.028Z,3.50
2022-08-17T14:15:02.258Z,5.43
2022-08-17T14:20:13.675Z,6.00
2022-08-17T14:25:23.171Z,4.35
2022-08-17T14:31:38.671Z,4.88
2022-08-17T14:37:24.959Z,7.32
2022-08-17T14:42:37.305Z,14.40
2022-08-17T14:47:43.285Z,24.63
2022-08-17T14:52:50.401Z,20.70
2022-08-17T14:57:58.680Z,30.50
2022-08-17T15:03:05.379Z,41.28
2022-08-17T15:08:09.900Z,60.28
2022-08-17T15:13:59.633Z,40.63
2022-08-17T15:19:24.367Z,25.70
2022-08-17T15:25:44.545Z,18.93
2022-08-17T15:31:18.179Z,11.53
2022-08-17T15:36:22.832Z,9.25
2022-08-17T15:41:29.343Z,7.73
2022-08-17T15:46:35.664Z,7.30
2022-08-17T15:51:41.323Z,7.57
2022-08-17T15:56:46.266Z,7.20
2022-08-17T16:03:13.177Z,9.45
2022-08-17T16:07:20.889Z,8.05
2022-08-17T16:12:28.943Z,6.85
2022-08-17T16:17:40.592Z,10.43
2022-08-17T16:22:47.215Z,7.72
2022-08-17T16:27:53.321Z,9.95
2022-08-17T16:33:03.557Z,9.98
2022-08-17T16:38:08.028Z,9.30
2022-08-17T16:43:12.495Z,10.93
2022-08-17T16:48:18.461Z,11.30
2022-08-17T16:53:22.934Z,11.73
2022-08-17T16:58:27.347Z,11.85
2022-08-17T17:03:33.820Z,11.05
2022-08-17T17:08:44.928Z,11.70
2022-08-17T17:13:57.821Z,11.57
2022-08-17T17:19:15.070Z,11.95
2022-08-17T17:24:32.634Z,11.03
2022-08-17T17:29:52.784Z,9.60
2022-08-17T17:35:09.527Z,11.60
2022-08-17T17:40:24.307Z,13.23
2022-08-17T17:45:38.700Z,15.57
2022-08-17T17:50:56.047Z,15.07
2022-08-17T17:56:18.777Z,13.15
2022-08-17T18:01:53.991Z,13.23
2022-08-17T18:07:17.540Z,12.65
2022-08-17T18:12:37.712Z,13.95
2022-08-17T18:18:13.096Z,13.10
2022-08-17T18:23:21.350Z,15.93
2022-08-17T18:28:34.683Z,16.70
2022-08-17T18:33:41.132Z,15.88
2022-08-17T18:38:47.080Z,15.18
2022-08-17T18:44:07.207Z,16.83
2022-08-17T18:49:29.883Z,13.73
2022-08-17T18:54:39.129Z,14.52
2022-08-17T18:59:48.231Z,16.30
2022-08-17T19:05:07.461Z,18.40
2022-08-17T19:10:29.376Z,15.73
2022-08-17T19:15:42.362Z,16.63
2022-08-17T19:20:57.661Z,12.77
2022-08-17T19:26:54.051Z,13.02
2022-08-17T19:31:46.663Z,14.10
2022-08-17T19:37:01.196Z,14.13
2022-08-17T19:42:17.182Z,15.63
2022-08-17T19:47:54.392Z,14.82
2022-08-17T19:53:10.854Z,15.00
2022-08-17T19:58:48.160Z,14.90
2022-08-17T20:04:04.537Z,15.65
2022-08-17T20:09:21.183Z,16.25
2022-08-17T20:14:37.549Z,13.47
2022-08-17T20:19:53.287Z,13.55
2022-08-17T20:25:12.218Z,14.65
2022-08-17T20:30:38.412Z,15.27
2022-08-17T20:36:06.215Z,16.27
2022-08-17T20:41:20.885Z,14.15
2022-08-17T20:46:57.138Z,17.27
2022-08-17T20:52:08.862Z,16.13
2022-08-17T20:57:55.321Z,14.25
2022-08-17T21:03:50.681Z,14.73
2022-08-17T21:09:20.268Z,14.83
2022-08-17T21:15:00.510Z,19.27
2022-08-17T21:20:26.445Z,17.57
2022-08-17T21:26:02.521Z,22.50
2022-08-17T21:31:10.743Z,26.77
2022-08-17T21:36:28.205Z,27.70
2022-08-17T21:41:47.613Z,23.23
2022-08-17T21:46:54.670Z,29.73
2022-08-17T21:52:02.381Z,28.97
2022-08-17T21:57:17.773Z,22.63
2022-08-17T22:02:26.371Z,20.03
2022-08-17T22:07:43.852Z,20.73
2022-08-17T22:13:05.901Z,16.13
2022-08-17T22:18:29.182Z,14.90
2022-08-17T22:23:56.166Z,18.17
2022-08-17T22:29:01.625Z,17.70
2022-08-17T22:34:15.804Z,19.08
2022-08-17T22:39:42.084Z,21.85
2022-08-17T22:44:50.556Z,29.08
2022-08-17T22:49:59.600Z,30.60
2022-08-17T22:55:35.037Z,25.45
2022-08-17T23:00:43.736Z,26.33
2022-08-17T23:06:04.353Z,20.40
2022-08-17T23:11:10.295Z,14.68
2022-08-17T23:16:14.865Z,11.18
2022-08-17T23:21:27.429Z,10.43
2022-08-17T23:26:39.167Z,11.63
2022-08-17T23:31:43.823Z,9.30
2022-08-17T23:36:53.181Z,11.13
2022-08-17T23:42:01.468Z,11.52
2022-08-17T23:47:07.776Z,11.90
2022-08-17T23:52:16.654Z,9.03
2022-08-17T23:57:33.726Z,7.10
